sensor_id;sensor_type;location;lat;lon;timestamp;P1;durP1;ratioP1;P2;durP2;ratioP2
50547;SDS011;38013;48.810;8.818;2023-05-21T00:01:22;12.75;;;10.00;;
50547;SDS011;38013;48.810;8.818;2023-05-21T00:03:50;12.68;;;9.57;;
50547;SDS011;38013;48.810;8.818;2023-05-21T00:06:17;13.05;;;10.20;;
50547;SDS011;38013;48.810;8.818;2023-05-21T00:08:46;13.95;;;9.93;;
50547;SDS011;38013;48.810;8.818;2023-05-21T00:11:13;13.48;;;9.75;;
50547;SDS011;38013;48.810;8.818;2023-05-21T00:13:40;14.38;;;10.27;;
50547;SDS011;38013;48.810;8.818;2023-05-21T00:16:07;13.77;;;10.32;;
50547;SDS011;38013;48.810;8.818;2023-05-21T00:18:36;15.02;;;10.50;;
50547;SDS011;38013;48.810;8.818;2023-05-21T00:21:04;14.55;;;9.88;;
50547;SDS011;38013;48.810;8.818;2023-05-21T00:23:31;12.57;;;9.45;;
50547;SDS011;38013;48.810;8.818;2023-05-21T00:25:59;14.07;;;10.40;;
50547;SDS011;38013;48.810;8.818;2023-05-21T00:28:26;15.45;;;10.38;;
50547;SDS011;38013;48.810;8.818;2023-05-21T00:30:53;13.15;;;9.68;;
50547;SDS011;38013;48.810;8.818;2023-05-21T00:33:20;14.98;;;10.40;;
50547;SDS011;38013;48.810;8.818;2023-05-21T00:35:47;13.50;;;9.43;;
50547;SDS011;38013;48.810;8.818;2023-05-21T00:38:14;14.57;;;10.43;;
50547;SDS011;38013;48.810;8.818;2023-05-21T00:40:43;14.85;;;10.93;;
50547;SDS011;38013;48.810;8.818;2023-05-21T00:43:10;13.05;;;9.80;;
50547;SDS011;38013;48.810;8.818;2023-05-21T00:45:40;15.63;;;9.88;;
50547;SDS011;38013;48.810;8.818;2023-05-21T00:48:09;14.00;;;10.23;;
50547;SDS011;38013;48.810;8.818;2023-05-21T00:50:38;16.13;;;9.85;;
50547;SDS011;38013;48.810;8.818;2023-05-21T00:53:06;17.00;;;11.45;;
50547;SDS011;38013;48.810;8.818;2023-05-21T00:55:36;15.98;;;11.18;;
50547;SDS011;38013;48.810;8.818;2023-05-21T00:58:04;14.35;;;10.98;;
50547;SDS011;38013;48.810;8.818;2023-05-21T01:00:35;15.55;;;11.32;;
50547;SDS011;38013;48.810;8.818;2023-05-21T01:03:06;15.75;;;11.00;;
50547;SDS011;38013;48.810;8.818;2023-05-21T01:05:33;15.60;;;11.35;;
50547;SDS011;38013;48.810;8.818;2023-05-21T01:08:00;15.00;;;11.45;;
50547;SDS011;38013;48.810;8.818;2023-05-21T01:10:28;14.40;;;10.40;;
50547;SDS011;38013;48.810;8.818;2023-05-21T01:12:56;15.32;;;12.00;;
50547;SDS011;38013;48.810;8.818;2023-05-21T01:15:24;14.23;;;10.65;;
50547;SDS011;38013;48.810;8.818;2023-05-21T01:17:52;19.50;;;11.27;;
50547;SDS011;38013;48.810;8.818;2023-05-21T01:20:21;15.70;;;11.43;;
50547;SDS011;38013;48.810;8.818;2023-05-21T01:22:50;13.93;;;11.18;;
50547;SDS011;38013;48.810;8.818;2023-05-21T01:25:21;13.18;;;10.30;;
50547;SDS011;38013;48.810;8.818;2023-05-21T01:30:17;14.75;;;10.57;;
50547;SDS011;38013;48.810;8.818;2023-05-21T01:32:52;14.60;;;11.48;;
50547;SDS011;38013;48.810;8.818;2023-05-21T01:38:36;15.98;;;10.80;;
50547;SDS011;38013;48.810;8.818;2023-05-21T01:41:15;14.40;;;11.48;;
50547;SDS011;38013;48.810;8.818;2023-05-21T01:43:45;16.63;;;12.02;;
50547;SDS011;38013;48.810;8.818;2023-05-21T01:46:14;19.88;;;12.00;;
50547;SDS011;38013;48.810;8.818;2023-05-21T01:48:45;17.27;;;11.75;;
50547;SDS011;38013;48.810;8.818;2023-05-21T01:51:15;15.13;;;10.65;;
50547;SDS011;38013;48.810;8.818;2023-05-21T01:53:42;17.13;;;11.38;;
50547;SDS011;38013;48.810;8.818;2023-05-21T01:56:09;13.50;;;10.35;;
50547;SDS011;38013;48.810;8.818;2023-05-21T01:58:36;15.27;;;11.80;;
50547;SDS011;38013;48.810;8.818;2023-05-21T02:01:03;16.55;;;12.25;;
50547;SDS011;38013;48.810;8.818;2023-05-21T02:03:30;17.65;;;12.18;;
50547;SDS011;38013;48.810;8.818;2023-05-21T02:05:58;14.35;;;11.10;;
50547;SDS011;38013;48.810;8.818;2023-05-21T02:08:25;18.90;;;12.50;;
50547;SDS011;38013;48.810;8.818;2023-05-21T02:10:53;16.52;;;11.45;;
50547;SDS011;38013;48.810;8.818;2023-05-21T02:13:20;16.77;;;11.45;;
50547;SDS011;38013;48.810;8.818;2023-05-21T02:15:51;16.30;;;12.00;;
50547;SDS011;38013;48.810;8.818;2023-05-21T02:18:19;14.77;;;11.38;;
50547;SDS011;38013;48.810;8.818;2023-05-21T02:20:46;19.50;;;12.40;;
50547;SDS011;38013;48.810;8.818;2023-05-21T02:23:13;20.10;;;11.73;;
50547;SDS011;38013;48.810;8.818;2023-05-21T02:25:40;17.33;;;12.63;;
50547;SDS011;38013;48.810;8.818;2023-05-21T02:28:07;18.98;;;11.75;;
50547;SDS011;38013;48.810;8.818;2023-05-21T02:30:34;19.17;;;12.60;;
50547;SDS011;38013;48.810;8.818;2023-05-21T02:33:01;16.88;;;11.63;;
50547;SDS011;38013;48.810;8.818;2023-05-21T02:35:28;15.82;;;12.20;;
50547;SDS011;38013;48.810;8.818;2023-05-21T02:37:55;16.65;;;11.45;;
50547;SDS011;38013;48.810;8.818;2023-05-21T02:40:24;14.88;;;11.40;;
50547;SDS011;38013;48.810;8.818;2023-05-21T02:42:51;20.20;;;12.07;;
50547;SDS011;38013;48.810;8.818;2023-05-21T02:45:19;15.90;;;11.65;;
50547;SDS011;38013;48.810;8.818;2023-05-21T02:47:46;18.85;;;11.88;;
50547;SDS011;38013;48.810;8.818;2023-05-21T02:52:50;13.07;;;9.63;;
50547;SDS011;38013;48.810;8.818;2023-05-21T02:55:17;12.85;;;9.65;;
50547;SDS011;38013;48.810;8.818;2023-05-21T02:57:44;15.63;;;10.75;;
50547;SDS011;38013;48.810;8.818;2023-05-21T03:00:11;15.80;;;11.60;;
50547;SDS011;38013;48.810;8.818;2023-05-21T03:02:41;13.50;;;10.47;;
50547;SDS011;38013;48.810;8.818;2023-05-21T03:05:08;17.42;;;11.77;;
50547;SDS011;38013;48.810;8.818;2023-05-21T03:07:35;14.32;;;11.48;;
50547;SDS011;38013;48.810;8.818;2023-05-21T03:10:03;14.52;;;11.30;;
50547;SDS011;38013;48.810;8.818;2023-05-21T03:12:30;13.65;;;10.93;;
50547;SDS011;38013;48.810;8.818;2023-05-21T03:14:57;14.50;;;10.90;;
50547;SDS011;38013;48.810;8.818;2023-05-21T03:17:26;14.70;;;10.93;;
50547;SDS011;38013;48.810;8.818;2023-05-21T03:19:53;14.32;;;10.88;;
50547;SDS011;38013;48.810;8.818;2023-05-21T03:22:21;17.40;;;11.60;;
50547;SDS011;38013;48.810;8.818;2023-05-21T03:24:48;15.98;;;11.75;;
50547;SDS011;38013;48.810;8.818;2023-05-21T03:27:16;17.02;;;11.90;;
50547;SDS011;38013;48.810;8.818;2023-05-21T03:29:44;14.43;;;11.55;;
50547;SDS011;38013;48.810;8.818;2023-05-21T03:32:11;14.00;;;10.75;;
50547;SDS011;38013;48.810;8.818;2023-05-21T03:34:39;14.60;;;11.10;;
50547;SDS011;38013;48.810;8.818;2023-05-21T03:37:06;17.30;;;12.95;;
50547;SDS011;38013;48.810;8.818;2023-05-21T03:39:33;15.07;;;11.57;;
50547;SDS011;38013;48.810;8.818;2023-05-21T03:42:00;17.45;;;12.32;;
50547;SDS011;38013;48.810;8.818;2023-05-21T03:44:44;16.08;;;12.00;;
50547;SDS011;38013;48.810;8.818;2023-05-21T03:47:28;16.73;;;12.60;;
50547;SDS011;38013;48.810;8.818;2023-05-21T03:49:56;16.73;;;12.75;;
50547;SDS011;38013;48.810;8.818;2023-05-21T03:52:23;21.52;;;13.38;;
50547;SDS011;38013;48.810;8.818;2023-05-21T03:54:50;17.63;;;12.77;;
50547;SDS011;38013;48.810;8.818;2023-05-21T03:57:17;17.02;;;12.63;;
50547;SDS011;38013;48.810;8.818;2023-05-21T03:59:45;18.00;;;12.45;;
50547;SDS011;38013;48.810;8.818;2023-05-21T04:02:13;16.55;;;12.15;;
50547;SDS011;38013;48.810;8.818;2023-05-21T04:04:40;18.90;;;11.90;;
50547;SDS011;38013;48.810;8.818;2023-05-21T04:07:09;16.27;;;12.57;;
50547;SDS011;38013;48.810;8.818;2023-05-21T04:09:40;15.80;;;11.10;;
50547;SDS011;38013;48.810;8.818;2023-05-21T04:12:07;15.80;;;12.73;;
50547;SDS011;38013;48.810;8.818;2023-05-21T04:14:35;16.15;;;12.15;;
50547;SDS011;38013;48.810;8.818;2023-05-21T04:17:05;17.23;;;12.90;;
50547;SDS011;38013;48.810;8.818;2023-05-21T04:19:32;19.08;;;11.82;;
50547;SDS011;38013;48.810;8.818;2023-05-21T04:22:01;16.05;;;12.52;;
50547;SDS011;38013;48.810;8.818;2023-05-21T04:24:30;17.60;;;12.55;;
50547;SDS011;38013;48.810;8.818;2023-05-21T04:27:11;16.85;;;11.68;;
50547;SDS011;38013;48.810;8.818;2023-05-21T04:29:39;16.10;;;11.85;;
50547;SDS011;38013;48.810;8.818;2023-05-21T04:32:09;19.75;;;12.10;;
50547;SDS011;38013;48.810;8.818;2023-05-21T04:34:36;16.23;;;12.40;;
50547;SDS011;38013;48.810;8.818;2023-05-21T04:37:04;17.40;;;12.70;;
50547;SDS011;38013;48.810;8.818;2023-05-21T04:39:32;14.65;;;10.55;;
50547;SDS011;38013;48.810;8.818;2023-05-21T04:41:59;15.00;;;11.52;;
50547;SDS011;38013;48.810;8.818;2023-05-21T04:44:28;19.70;;;13.40;;
50547;SDS011;38013;48.810;8.818;2023-05-21T04:46:56;18.50;;;13.82;;
50547;SDS011;38013;48.810;8.818;2023-05-21T04:49:24;15.60;;;11.82;;
50547;SDS011;38013;48.810;8.818;2023-05-21T04:51:50;17.92;;;12.45;;
50547;SDS011;38013;48.810;8.818;2023-05-21T04:54:18;15.52;;;12.23;;
50547;SDS011;38013;48.810;8.818;2023-05-21T04:56:45;16.77;;;11.68;;
50547;SDS011;38013;48.810;8.818;2023-05-21T04:59:12;15.23;;;11.05;;
50547;SDS011;38013;48.810;8.818;2023-05-21T05:01:40;18.70;;;12.52;;
50547;SDS011;38013;48.810;8.818;2023-05-21T05:04:09;18.02;;;12.30;;
50547;SDS011;38013;48.810;8.818;2023-05-21T05:06:35;17.95;;;12.73;;
50547;SDS011;38013;48.810;8.818;2023-05-21T05:09:03;17.85;;;13.20;;
50547;SDS011;38013;48.810;8.818;2023-05-21T05:11:30;17.58;;;12.20;;
50547;SDS011;38013;48.810;8.818;2023-05-21T05:13:57;17.08;;;13.10;;
50547;SDS011;38013;48.810;8.818;2023-05-21T05:16:24;16.25;;;13.07;;
50547;SDS011;38013;48.810;8.818;2023-05-21T05:18:54;17.25;;;12.70;;
50547;SDS011;38013;48.810;8.818;2023-05-21T05:21:21;16.67;;;12.85;;
50547;SDS011;38013;48.810;8.818;2023-05-21T05:23:49;16.13;;;12.57;;
50547;SDS011;38013;48.810;8.818;2023-05-21T05:26:17;17.38;;;12.43;;
50547;SDS011;38013;48.810;8.818;2023-05-21T05:28:44;16.70;;;13.48;;
50547;SDS011;38013;48.810;8.818;2023-05-21T05:31:12;23.65;;;12.93;;
50547;SDS011;38013;48.810;8.818;2023-05-21T05:33:41;18.75;;;14.02;;
50547;SDS011;38013;48.810;8.818;2023-05-21T05:36:10;17.15;;;13.55;;
50547;SDS011;38013;48.810;8.818;2023-05-21T05:38:36;17.35;;;12.40;;
50547;SDS011;38013;48.810;8.818;2023-05-21T05:41:03;19.17;;;12.77;;
50547;SDS011;38013;48.810;8.818;2023-05-21T05:43:30;15.02;;;12.13;;
50547;SDS011;38013;48.810;8.818;2023-05-21T05:45:58;17.27;;;12.50;;
50547;SDS011;38013;48.810;8.818;2023-05-21T05:48:25;17.30;;;12.52;;
50547;SDS011;38013;48.810;8.818;2023-05-21T05:50:54;18.73;;;12.98;;
50547;SDS011;38013;48.810;8.818;2023-05-21T05:53:24;16.90;;;13.00;;
50547;SDS011;38013;48.810;8.818;2023-05-21T05:55:51;16.67;;;12.35;;
50547;SDS011;38013;48.810;8.818;2023-05-21T05:58:18;17.08;;;13.05;;
50547;SDS011;38013;48.810;8.818;2023-05-21T06:01:17;16.90;;;12.93;;
50547;SDS011;38013;48.810;8.818;2023-05-21T06:03:44;16.45;;;13.18;;
50547;SDS011;38013;48.810;8.818;2023-05-21T06:06:14;17.95;;;13.27;;
50547;SDS011;38013;48.810;8.818;2023-05-21T06:08:42;18.58;;;13.50;;
50547;SDS011;38013;48.810;8.818;2023-05-21T06:11:10;19.15;;;13.07;;
50547;SDS011;38013;48.810;8.818;2023-05-21T06:13:37;18.17;;;12.50;;
50547;SDS011;38013;48.810;8.818;2023-05-21T06:16:05;16.75;;;13.35;;
50547;SDS011;38013;48.810;8.818;2023-05-21T06:18:32;18.13;;;12.65;;
50547;SDS011;38013;48.810;8.818;2023-05-21T06:20:59;18.30;;;13.60;;
50547;SDS011;38013;48.810;8.818;2023-05-21T06:23:27;18.73;;;13.65;;
50547;SDS011;38013;48.810;8.818;2023-05-21T06:25:54;18.95;;;13.52;;
50547;SDS011;38013;48.810;8.818;2023-05-21T06:28:21;17.20;;;13.43;;
50547;SDS011;38013;48.810;8.818;2023-05-21T06:30:48;18.50;;;13.23;;
50547;SDS011;38013;48.810;8.818;2023-05-21T06:33:15;17.20;;;13.02;;
50547;SDS011;38013;48.810;8.818;2023-05-21T06:35:42;17.15;;;13.30;;
50547;SDS011;38013;48.810;8.818;2023-05-21T06:38:10;17.40;;;13.43;;
50547;SDS011;38013;48.810;8.818;2023-05-21T06:40:37;17.58;;;13.75;;
50547;SDS011;38013;48.810;8.818;2023-05-21T06:43:06;18.70;;;13.02;;
50547;SDS011;38013;48.810;8.818;2023-05-21T06:45:51;15.70;;;12.13;;
50547;SDS011;38013;48.810;8.818;2023-05-21T06:48:34;16.42;;;12.50;;
50547;SDS011;38013;48.810;8.818;2023-05-21T06:51:01;18.50;;;12.18;;
50547;SDS011;38013;48.810;8.818;2023-05-21T06:53:27;16.90;;;12.13;;
50547;SDS011;38013;48.810;8.818;2023-05-21T06:55:54;17.55;;;12.20;;
50547;SDS011;38013;48.810;8.818;2023-05-21T06:58:47;17.50;;;12.32;;
50547;SDS011;38013;48.810;8.818;2023-05-21T07:01:14;15.00;;;11.27;;
50547;SDS011;38013;48.810;8.818;2023-05-21T07:03:42;16.02;;;11.63;;
50547;SDS011;38013;48.810;8.818;2023-05-21T07:06:09;14.00;;;11.45;;
50547;SDS011;38013;48.810;8.818;2023-05-21T07:08:36;18.33;;;10.13;;
50547;SDS011;38013;48.810;8.818;2023-05-21T07:11:03;14.15;;;10.05;;
50547;SDS011;38013;48.810;8.818;2023-05-21T07:13:30;13.00;;;10.30;;
50547;SDS011;38013;48.810;8.818;2023-05-21T07:15:57;13.38;;;9.32;;
50547;SDS011;38013;48.810;8.818;2023-05-21T07:18:25;12.50;;;9.45;;
50547;SDS011;38013;48.810;8.818;2023-05-21T07:20:53;12.38;;;9.35;;
50547;SDS011;38013;48.810;8.818;2023-05-21T07:23:19;12.25;;;8.75;;
50547;SDS011;38013;48.810;8.818;2023-05-21T07:25:46;12.55;;;8.68;;
50547;SDS011;38013;48.810;8.818;2023-05-21T07:28:13;11.50;;;9.15;;
50547;SDS011;38013;48.810;8.818;2023-05-21T07:30:40;15.35;;;10.07;;
50547;SDS011;38013;48.810;8.818;2023-05-21T07:33:12;12.82;;;9.02;;
50547;SDS011;38013;48.810;8.818;2023-05-21T07:35:39;12.80;;;9.55;;
50547;SDS011;38013;48.810;8.818;2023-05-21T07:38:06;12.23;;;9.27;;
50547;SDS011;38013;48.810;8.818;2023-05-21T07:40:33;12.73;;;8.77;;
50547;SDS011;38013;48.810;8.818;2023-05-21T07:43:01;11.63;;;8.80;;
50547;SDS011;38013;48.810;8.818;2023-05-21T07:45:29;13.05;;;8.77;;
50547;SDS011;38013;48.810;8.818;2023-05-21T07:47:56;11.77;;;8.57;;
50547;SDS011;38013;48.810;8.818;2023-05-21T07:50:24;12.38;;;9.43;;
50547;SDS011;38013;48.810;8.818;2023-05-21T07:52:52;13.38;;;10.23;;
50547;SDS011;38013;48.810;8.818;2023-05-21T07:55:19;12.50;;;8.98;;
50547;SDS011;38013;48.810;8.818;2023-05-21T07:57:46;11.88;;;9.13;;
50547;SDS011;38013;48.810;8.818;2023-05-21T08:00:16;12.20;;;9.07;;
50547;SDS011;38013;48.810;8.818;2023-05-21T08:02:51;12.15;;;9.38;;
50547;SDS011;38013;48.810;8.818;2023-05-21T08:05:19;11.68;;;8.73;;
50547;SDS011;38013;48.810;8.818;2023-05-21T08:07:48;10.50;;;8.35;;
50547;SDS011;38013;48.810;8.818;2023-05-21T08:10:17;11.77;;;8.68;;
50547;SDS011;38013;48.810;8.818;2023-05-21T08:12:46;12.38;;;8.82;;
50547;SDS011;38013;48.810;8.818;2023-05-21T08:15:13;15.65;;;9.38;;
50547;SDS011;38013;48.810;8.818;2023-05-21T08:17:44;11.88;;;9.15;;
50547;SDS011;38013;48.810;8.818;2023-05-21T08:20:11;11.00;;;8.75;;
50547;SDS011;38013;48.810;8.818;2023-05-21T08:22:40;10.93;;;8.80;;
50547;SDS011;38013;48.810;8.818;2023-05-21T08:25:09;11.48;;;7.93;;
50547;SDS011;38013;48.810;8.818;2023-05-21T08:27:36;14.45;;;10.10;;
50547;SDS011;38013;48.810;8.818;2023-05-21T08:30:03;11.50;;;8.90;;
50547;SDS011;38013;48.810;8.818;2023-05-21T08:32:31;12.65;;;8.70;;
50547;SDS011;38013;48.810;8.818;2023-05-21T08:34:59;12.32;;;8.15;;
50547;SDS011;38013;48.810;8.818;2023-05-21T08:37:42;13.00;;;7.50;;
50547;SDS011;38013;48.810;8.818;2023-05-21T08:40:17;10.98;;;7.50;;
50547;SDS011;38013;48.810;8.818;2023-05-21T08:42:45;11.45;;;8.05;;
50547;SDS011;38013;48.810;8.818;2023-05-21T08:45:34;12.77;;;8.48;;
50547;SDS011;38013;48.810;8.818;2023-05-21T08:50:32;10.63;;;8.10;;
50547;SDS011;38013;48.810;8.818;2023-05-21T08:53:05;11.68;;;7.00;;
50547;SDS011;38013;48.810;8.818;2023-05-21T08:55:45;12.73;;;8.00;;
50547;SDS011;38013;48.810;8.818;2023-05-21T08:58:12;10.45;;;7.43;;
50547;SDS011;38013;48.810;8.818;2023-05-21T09:00:40;15.50;;;7.70;;
50547;SDS011;38013;48.810;8.818;2023-05-21T09:03:09;9.80;;;7.82;;
50547;SDS011;38013;48.810;8.818;2023-05-21T09:05:42;10.30;;;7.82;;
50547;SDS011;38013;48.810;8.818;2023-05-21T09:08:30;15.27;;;8.15;;
50547;SDS011;38013;48.810;8.818;2023-05-21T09:11:05;12.55;;;8.20;;
50547;SDS011;38013;48.810;8.818;2023-05-21T09:13:41;12.55;;;7.82;;
50547;SDS011;38013;48.810;8.818;2023-05-21T09:16:17;11.60;;;7.32;;
50547;SDS011;38013;48.810;8.818;2023-05-21T09:18:44;9.82;;;7.75;;
50547;SDS011;38013;48.810;8.818;2023-05-21T09:21:25;10.05;;;7.32;;
50547;SDS011;38013;48.810;8.818;2023-05-21T09:24:02;15.23;;;8.23;;
50547;SDS011;38013;48.810;8.818;2023-05-21T09:26:30;18.48;;;7.78;;
50547;SDS011;38013;48.810;8.818;2023-05-21T09:29:01;10.05;;;7.75;;
50547;SDS011;38013;48.810;8.818;2023-05-21T09:31:28;9.60;;;7.97;;
50547;SDS011;38013;48.810;8.818;2023-05-21T09:33:56;10.57;;;8.13;;
50547;SDS011;38013;48.810;8.818;2023-05-21T09:36:24;11.27;;;8.60;;
50547;SDS011;38013;48.810;8.818;2023-05-21T09:41:29;12.37;;;6.90;;
50547;SDS011;38013;48.810;8.818;2023-05-21T09:43:59;11.10;;;8.43;;
50547;SDS011;38013;48.810;8.818;2023-05-21T09:46:38;12.02;;;7.95;;
50547;SDS011;38013;48.810;8.818;2023-05-21T09:49:11;9.57;;;7.13;;
50547;SDS011;38013;48.810;8.818;2023-05-21T09:51:53;14.15;;;7.45;;
50547;SDS011;38013;48.810;8.818;2023-05-21T09:54:22;10.07;;;8.15;;
50547;SDS011;38013;48.810;8.818;2023-05-21T09:56:50;11.57;;;8.20;;
50547;SDS011;38013;48.810;8.818;2023-05-21T09:59:20;11.82;;;8.98;;
50547;SDS011;38013;48.810;8.818;2023-05-21T10:01:50;10.95;;;8.63;;
50547;SDS011;38013;48.810;8.818;2023-05-21T10:04:18;10.70;;;8.30;;
50547;SDS011;38013;48.810;8.818;2023-05-21T10:06:46;16.42;;;8.27;;
50547;SDS011;38013;48.810;8.818;2023-05-21T10:09:14;12.52;;;8.23;;
50547;SDS011;38013;48.810;8.818;2023-05-21T10:11:44;11.85;;;8.20;;
50547;SDS011;38013;48.810;8.818;2023-05-21T10:14:18;16.42;;;8.07;;
50547;SDS011;38013;48.810;8.818;2023-05-21T10:16:47;11.65;;;7.70;;
50547;SDS011;38013;48.810;8.818;2023-05-21T10:19:15;11.27;;;8.38;;
50547;SDS011;38013;48.810;8.818;2023-05-21T10:21:43;12.57;;;7.97;;
50547;SDS011;38013;48.810;8.818;2023-05-21T10:24:11;10.60;;;8.00;;
50547;SDS011;38013;48.810;8.818;2023-05-21T10:26:38;10.30;;;7.70;;
50547;SDS011;38013;48.810;8.818;2023-05-21T10:29:07;12.32;;;8.77;;
50547;SDS011;38013;48.810;8.818;2023-05-21T10:31:35;10.30;;;8.18;;
50547;SDS011;38013;48.810;8.818;2023-05-21T10:34:04;12.07;;;8.07;;
50547;SDS011;38013;48.810;8.818;2023-05-21T10:36:31;12.52;;;7.95;;
50547;SDS011;38013;48.810;8.818;2023-05-21T10:38:59;11.43;;;7.63;;
50547;SDS011;38013;48.810;8.818;2023-05-21T10:41:30;14.35;;;8.50;;
50547;SDS011;38013;48.810;8.818;2023-05-21T10:47:18;10.65;;;8.57;;
50547;SDS011;38013;48.810;8.818;2023-05-21T11:01:57;12.27;;;7.97;;
50547;SDS011;38013;48.810;8.818;2023-05-21T11:04:28;10.85;;;7.97;;
50547;SDS011;38013;48.810;8.818;2023-05-21T11:06:57;12.57;;;8.43;;
50547;SDS011;38013;48.810;8.818;2023-05-21T11:09:24;10.18;;;6.88;;
50547;SDS011;38013;48.810;8.818;2023-05-21T11:11:52;10.40;;;7.57;;
50547;SDS011;38013;48.810;8.818;2023-05-21T11:15:09;12.40;;;7.65;;
50547;SDS011;38013;48.810;8.818;2023-05-21T11:17:39;9.27;;;6.85;;
50547;SDS011;38013;48.810;8.818;2023-05-21T11:20:11;10.02;;;6.85;;
50547;SDS011;38013;48.810;8.818;2023-05-21T11:22:39;9.32;;;6.57;;
50547;SDS011;38013;48.810;8.818;2023-05-21T11:25:06;8.48;;;6.97;;
50547;SDS011;38013;48.810;8.818;2023-05-21T11:27:40;10.75;;;7.60;;
50547;SDS011;38013;48.810;8.818;2023-05-21T11:30:08;10.27;;;6.93;;
50547;SDS011;38013;48.810;8.818;2023-05-21T11:33:16;9.93;;;6.72;;
50547;SDS011;38013;48.810;8.818;2023-05-21T11:35:37;11.45;;;7.65;;
50547;SDS011;38013;48.810;8.818;2023-05-21T11:38:09;10.93;;;6.97;;
50547;SDS011;38013;48.810;8.818;2023-05-21T11:40:36;10.50;;;6.85;;
50547;SDS011;38013;48.810;8.818;2023-05-21T11:43:17;12.73;;;6.77;;
50547;SDS011;38013;48.810;8.818;2023-05-21T11:45:44;12.38;;;6.85;;
50547;SDS011;38013;48.810;8.818;2023-05-21T11:48:12;10.38;;;6.82;;
50547;SDS011;38013;48.810;8.818;2023-05-21T11:50:39;14.10;;;6.43;;
50547;SDS011;38013;48.810;8.818;2023-05-21T11:53:09;10.00;;;7.10;;
50547;SDS011;38013;48.810;8.818;2023-05-21T11:55:37;9.32;;;7.10;;
50547;SDS011;38013;48.810;8.818;2023-05-21T11:58:09;9.07;;;6.05;;
50547;SDS011;38013;48.810;8.818;2023-05-21T12:00:39;9.38;;;6.50;;
50547;SDS011;38013;48.810;8.818;2023-05-21T12:03:06;8.13;;;6.43;;
50547;SDS011;38013;48.810;8.818;2023-05-21T12:05:45;9.32;;;6.97;;
50547;SDS011;38013;48.810;8.818;2023-05-21T12:08:20;8.48;;;6.38;;
50547;SDS011;38013;48.810;8.818;2023-05-21T12:10:57;8.07;;;6.35;;
50547;SDS011;38013;48.810;8.818;2023-05-21T12:13:25;11.07;;;6.40;;
50547;SDS011;38013;48.810;8.818;2023-05-21T12:15:53;7.72;;;5.40;;
50547;SDS011;38013;48.810;8.818;2023-05-21T12:18:20;9.48;;;6.80;;
50547;SDS011;38013;48.810;8.818;2023-05-21T12:20:47;11.02;;;5.78;;
50547;SDS011;38013;48.810;8.818;2023-05-21T12:23:24;12.68;;;5.90;;
50547;SDS011;38013;48.810;8.818;2023-05-21T12:25:51;7.68;;;6.35;;
50547;SDS011;38013;48.810;8.818;2023-05-21T12:28:21;10.05;;;6.35;;
50547;SDS011;38013;48.810;8.818;2023-05-21T12:30:49;8.88;;;5.85;;
50547;SDS011;38013;48.810;8.818;2023-05-21T12:33:17;11.15;;;6.25;;
50547;SDS011;38013;48.810;8.818;2023-05-21T12:35:44;10.77;;;5.95;;
50547;SDS011;38013;48.810;8.818;2023-05-21T12:38:15;8.40;;;5.45;;
50547;SDS011;38013;48.810;8.818;2023-05-21T12:40:42;7.85;;;5.93;;
50547;SDS011;38013;48.810;8.818;2023-05-21T12:43:10;7.25;;;5.43;;
50547;SDS011;38013;48.810;8.818;2023-05-21T12:45:37;9.93;;;5.60;;
50547;SDS011;38013;48.810;8.818;2023-05-21T12:48:04;7.82;;;4.85;;
50547;SDS011;38013;48.810;8.818;2023-05-21T12:50:32;8.13;;;5.13;;
50547;SDS011;38013;48.810;8.818;2023-05-21T12:53:01;6.60;;;4.72;;
50547;SDS011;38013;48.810;8.818;2023-05-21T12:55:28;9.05;;;5.13;;
50547;SDS011;38013;48.810;8.818;2023-05-21T12:58:00;7.40;;;5.40;;
50547;SDS011;38013;48.810;8.818;2023-05-21T13:00:34;7.65;;;5.07;;
50547;SDS011;38013;48.810;8.818;2023-05-21T13:03:02;8.63;;;5.35;;
50547;SDS011;38013;48.810;8.818;2023-05-21T13:05:32;7.22;;;4.90;;
50547;SDS011;38013;48.810;8.818;2023-05-21T13:07:59;7.18;;;5.03;;
50547;SDS011;38013;48.810;8.818;2023-05-21T13:10:26;6.85;;;5.22;;
50547;SDS011;38013;48.810;8.818;2023-05-21T13:12:53;7.57;;;5.00;;
50547;SDS011;38013;48.810;8.818;2023-05-21T13:15:20;8.80;;;5.18;;
50547;SDS011;38013;48.810;8.818;2023-05-21T13:17:48;6.35;;;5.00;;
50547;SDS011;38013;48.810;8.818;2023-05-21T13:20:20;8.82;;;5.18;;
50547;SDS011;38013;48.810;8.818;2023-05-21T13:22:49;7.13;;;5.22;;
50547;SDS011;38013;48.810;8.818;2023-05-21T13:25:18;6.90;;;5.10;;
50547;SDS011;38013;48.810;8.818;2023-05-21T13:27:47;7.95;;;4.78;;
50547;SDS011;38013;48.810;8.818;2023-05-21T13:30:15;8.02;;;4.40;;
50547;SDS011;38013;48.810;8.818;2023-05-21T13:32:43;6.63;;;4.65;;
50547;SDS011;38013;48.810;8.818;2023-05-21T13:35:11;6.97;;;4.32;;
50547;SDS011;38013;48.810;8.818;2023-05-21T13:37:38;8.18;;;4.80;;
50547;SDS011;38013;48.810;8.818;2023-05-21T13:40:09;6.45;;;4.20;;
50547;SDS011;38013;48.810;8.818;2023-05-21T13:42:40;7.28;;;4.38;;
50547;SDS011;38013;48.810;8.818;2023-05-21T13:45:13;5.88;;;4.30;;
50547;SDS011;38013;48.810;8.818;2023-05-21T13:47:43;5.65;;;3.90;;
50547;SDS011;38013;48.810;8.818;2023-05-21T13:50:12;10.88;;;4.20;;
50547;SDS011;38013;48.810;8.818;2023-05-21T13:52:39;7.95;;;3.78;;
50547;SDS011;38013;48.810;8.818;2023-05-21T13:55:06;5.97;;;4.07;;
50547;SDS011;38013;48.810;8.818;2023-05-21T13:57:34;6.93;;;4.13;;
50547;SDS011;38013;48.810;8.818;2023-05-21T14:00:01;6.95;;;3.85;;
50547;SDS011;38013;48.810;8.818;2023-05-21T14:02:32;5.15;;;3.90;;
50547;SDS011;38013;48.810;8.818;2023-05-21T14:05:00;7.35;;;3.90;;
50547;SDS011;38013;48.810;8.818;2023-05-21T14:07:26;6.15;;;3.75;;
50547;SDS011;38013;48.810;8.818;2023-05-21T14:09:53;8.18;;;4.03;;
50547;SDS011;38013;48.810;8.818;2023-05-21T14:12:21;5.35;;;3.72;;
50547;SDS011;38013;48.810;8.818;2023-05-21T14:14:48;6.97;;;4.20;;
50547;SDS011;38013;48.810;8.818;2023-05-21T14:17:15;9.45;;;4.20;;
50547;SDS011;38013;48.810;8.818;2023-05-21T14:19:42;8.75;;;4.53;;
50547;SDS011;38013;48.810;8.818;2023-05-21T14:22:09;6.40;;;4.28;;
50547;SDS011;38013;48.810;8.818;2023-05-21T14:24:36;9.27;;;4.63;;
50547;SDS011;38013;48.810;8.818;2023-05-21T14:27:03;7.75;;;4.15;;
50547;SDS011;38013;48.810;8.818;2023-05-21T14:29:30;6.63;;;4.28;;
50547;SDS011;38013;48.810;8.818;2023-05-21T14:31:58;6.43;;;4.32;;
50547;SDS011;38013;48.810;8.818;2023-05-21T14:34:25;8.48;;;4.13;;
50547;SDS011;38013;48.810;8.818;2023-05-21T14:36:52;6.57;;;3.88;;
50547;SDS011;38013;48.810;8.818;2023-05-21T14:39:19;6.05;;;4.10;;
50547;SDS011;38013;48.810;8.818;2023-05-21T14:41:46;6.82;;;4.25;;
50547;SDS011;38013;48.810;8.818;2023-05-21T14:44:12;6.50;;;4.20;;
50547;SDS011;38013;48.810;8.818;2023-05-21T14:46:39;6.78;;;4.07;;
50547;SDS011;38013;48.810;8.818;2023-05-21T14:49:07;6.38;;;4.72;;
50547;SDS011;38013;48.810;8.818;2023-05-21T14:51:34;6.55;;;4.50;;
50547;SDS011;38013;48.810;8.818;2023-05-21T14:54:00;8.13;;;4.38;;
50547;SDS011;38013;48.810;8.818;2023-05-21T14:56:27;5.85;;;3.88;;
50547;SDS011;38013;48.810;8.818;2023-05-21T14:58:54;7.15;;;4.30;;
50547;SDS011;38013;48.810;8.818;2023-05-21T15:01:21;7.93;;;4.38;;
50547;SDS011;38013;48.810;8.818;2023-05-21T15:03:49;6.63;;;4.22;;
50547;SDS011;38013;48.810;8.818;2023-05-21T15:06:16;6.40;;;4.30;;
50547;SDS011;38013;48.810;8.818;2023-05-21T15:08:43;5.68;;;4.30;;
50547;SDS011;38013;48.810;8.818;2023-05-21T15:11:10;9.63;;;4.72;;